createdAt,value
2018-03-14T00:00:28.114Z,88.19
2018-03-14T00:03:05.220Z,87.79
2018-03-14T00:04:12.375Z,87.68
2018-03-14T00:05:18.543Z,88.10
2018-03-14T00:06:24.679Z,88.33
2018-03-14T00:07:31.038Z,88.42
2018-03-14T00:08:40.319Z,88.68
2018-03-14T00:09:46.504Z,89.37
2018-03-14T00:10:52.694Z,88.56
2018-03-14T00:11:59.031Z,87.98
2018-03-14T00:13:04.915Z,87.90
2018-03-14T00:14:11.089Z,87.77
2018-03-14T00:15:17.221Z,87.62
2018-03-14T00:16:23.617Z,87.52
2018-03-14T00:17:30.411Z,87.32
2018-03-14T00:18:36.908Z,87.87
2018-03-14T00:19:43.102Z,87.52
2018-03-14T00:20:49.327Z,87.29
2018-03-14T00:21:55.562Z,87.58
2018-03-14T00:23:01.918Z,87.02
2018-03-14T00:24:08.087Z,86.89
2018-03-14T00:25:14.267Z,86.84
2018-03-14T00:26:20.476Z,86.79
2018-03-14T00:27:26.822Z,86.75
2018-03-14T00:28:32.988Z,87.27
2018-03-14T00:29:39.156Z,87.44
2018-03-14T00:30:45.283Z,87.11
2018-03-14T00:31:51.416Z,87.25
2018-03-14T00:32:57.833Z,87.88
2018-03-14T00:34:03.839Z,88.04
2018-03-14T00:35:10.055Z,88.10
2018-03-14T00:36:16.254Z,87.93
2018-03-14T00:37:23.353Z,87.61
2018-03-14T00:38:29.696Z,88.42
2018-03-14T00:39:35.835Z,88.13
2018-03-14T00:40:42.023Z,86.97
2018-03-14T00:41:48.157Z,86.98
2018-03-14T00:42:58.719Z,87.17
2018-03-14T00:44:04.547Z,86.96
2018-03-14T00:45:10.770Z,87.02
2018-03-14T00:46:16.994Z,88.10
2018-03-14T00:47:23.354Z,88.41
2018-03-14T00:48:29.718Z,88.26
2018-03-14T00:49:36.085Z,88.10
2018-03-14T00:50:42.424Z,88.54
2018-03-14T00:51:48.808Z,88.73
2018-03-14T00:52:54.950Z,88.32
2018-03-14T00:54:01.564Z,88.50
2018-03-14T00:55:07.676Z,88.58
2018-03-14T00:56:13.806Z,88.59
2018-03-14T00:57:20.595Z,89.02
2018-03-14T00:58:26.699Z,89.30
2018-03-14T00:59:32.853Z,88.62
2018-03-14T01:00:39.014Z,88.94
2018-03-14T01:01:46.192Z,89.79
2018-03-14T01:02:52.347Z,90.29
2018-03-14T01:03:58.503Z,90.14
2018-03-14T01:05:04.205Z,89.99
2018-03-14T01:06:12.232Z,90.34
2018-03-14T01:07:18.370Z,90.46
2018-03-14T01:08:30.607Z,90.28
2018-03-14T01:09:36.938Z,90.44
2018-03-14T01:10:43.282Z,90.38
2018-03-14T01:11:49.479Z,90.12
2018-03-14T01:12:55.699Z,90.11
2018-03-14T01:14:01.897Z,90.37
2018-03-14T01:15:08.605Z,90.74
2018-03-14T01:16:14.743Z,90.80
2018-03-14T01:17:32.768Z,90.36
2018-03-14T01:18:39.119Z,90.55
2018-03-14T01:19:45.496Z,90.35
2018-03-14T01:20:51.835Z,90.23
2018-03-14T01:21:58.172Z,90.47
2018-03-14T01:23:04.329Z,90.73
2018-03-14T01:24:10.506Z,91.23
2018-03-14T01:25:16.720Z,91.49
2018-03-14T01:26:23.119Z,91.40
2018-03-14T01:27:30.439Z,91.43
2018-03-14T01:28:36.809Z,91.19
2018-03-14T01:29:43.143Z,91.53
2018-03-14T01:30:49.266Z,91.12
2018-03-14T01:31:55.495Z,92.39
2018-03-14T01:33:01.885Z,92.19
2018-03-14T01:34:08.028Z,91.96
2018-03-14T01:35:14.167Z,91.91
2018-03-14T01:36:20.336Z,91.86
2018-03-14T01:37:26.514Z,92.21
2018-03-14T01:38:32.640Z,92.50
2018-03-14T01:39:38.811Z,92.40
2018-03-14T01:40:44.941Z,92.20
2018-03-14T01:41:51.102Z,91.84
2018-03-14T01:42:57.439Z,92.07
2018-03-14T01:44:03.862Z,92.62
2018-03-14T01:45:10.240Z,92.32
2018-03-14T01:46:16.408Z,92.25
2018-03-14T01:47:22.592Z,92.40
2018-03-14T01:48:28.752Z,92.63
2018-03-14T01:49:35.119Z,92.57
2018-03-14T01:50:41.007Z,92.46
2018-03-14T01:51:47.378Z,92.88
2018-03-14T01:52:52.841Z,93.55
2018-03-14T01:53:58.791Z,93.70
2018-03-14T01:55:04.803Z,93.44
2018-03-14T01:56:11.191Z,93.68
2018-03-14T01:57:17.723Z,93.70
2018-03-14T01:58:23.928Z,93.47
2018-03-14T01:59:30.129Z,92.89
2018-03-14T02:00:36.547Z,93.21
2018-03-14T02:01:41.673Z,93.03
2018-03-14T02:02:47.864Z,92.73
2018-03-14T02:03:53.788Z,92.48
2018-03-14T02:04:59.752Z,93.05
2018-03-14T02:06:05.991Z,92.68
2018-03-14T02:07:12.144Z,92.78
2018-03-14T02:08:18.269Z,93.32
2018-03-14T02:09:24.608Z,93.33
2018-03-14T02:10:30.924Z,93.52
2018-03-14T02:11:36.755Z,92.84
2018-03-14T02:12:42.901Z,92.65
2018-03-14T02:13:49.083Z,92.28
2018-03-14T02:14:55.535Z,92.74
2018-03-14T02:16:01.709Z,92.92
2018-03-14T02:17:07.866Z,92.99
2018-03-14T02:18:13.975Z,92.73
2018-03-14T02:19:20.075Z,92.38
2018-03-14T02:20:26.084Z,92.60
2018-03-14T02:21:32.204Z,92.64
2018-03-14T02:22:38.544Z,92.45
2018-03-14T02:23:46.947Z,92.72
2018-03-14T02:24:53.323Z,92.43
2018-03-14T02:25:59.725Z,92.86
2018-03-14T02:27:05.586Z,93.33
2018-03-14T02:28:11.610Z,93.33
2018-03-14T02:29:17.967Z,94.00
2018-03-14T02:30:24.399Z,93.72
2018-03-14T02:31:30.814Z,93.28
2018-03-14T02:32:36.971Z,93.22
2018-03-14T02:33:43.335Z,92.72
2018-03-14T02:34:49.715Z,92.66
2018-03-14T02:35:56.048Z,93.21
2018-03-14T02:37:02.335Z,93.11
2018-03-14T02:38:08.711Z,93.88
2018-03-14T02:39:15.115Z,93.77
2018-03-14T02:40:21.277Z,93.43
2018-03-14T02:41:27.662Z,92.99
2018-03-14T02:42:33.888Z,92.81
2018-03-14T02:43:40.028Z,92.19
2018-03-14T02:44:46.544Z,91.91
2018-03-14T02:45:52.746Z,91.74
2018-03-14T02:46:58.642Z,91.09
2018-03-14T02:48:04.851Z,91.13
2018-03-14T02:49:10.982Z,91.18
2018-03-14T02:50:17.158Z,90.45
2018-03-14T02:51:23.304Z,90.76
2018-03-14T02:52:29.402Z,91.50
2018-03-14T02:53:35.535Z,91.19
2018-03-14T02:54:42.347Z,91.48
2018-03-14T02:55:48.551Z,91.27
2018-03-14T02:56:54.728Z,90.57
2018-03-14T02:58:00.852Z,90.69
2018-03-14T02:59:07.011Z,90.94
2018-03-14T03:00:13.173Z,91.21
2018-03-14T03:01:18.971Z,91.79
2018-03-14T03:02:25.141Z,92.08
2018-03-14T03:03:30.984Z,92.24
2018-03-14T03:04:37.158Z,92.48
2018-03-14T03:05:43.340Z,92.85
2018-03-14T03:06:51.046Z,92.91
2018-03-14T03:07:57.254Z,92.44
2018-03-14T03:09:03.412Z,92.43
2018-03-14T03:10:09.372Z,92.49
2018-03-14T03:11:15.559Z,92.98
2018-03-14T03:12:21.715Z,92.59
2018-03-14T03:13:27.887Z,92.40
2018-03-14T03:14:34.079Z,92.02
2018-03-14T03:15:40.281Z,91.71
2018-03-14T03:16:46.443Z,91.48
2018-03-14T03:17:52.632Z,91.88
2018-03-14T03:19:01.790Z,92.19
2018-03-14T03:20:07.966Z,91.96
2018-03-14T03:21:18.024Z,91.42
2018-03-14T03:22:24.171Z,91.27
2018-03-14T03:23:30.346Z,91.19
2018-03-14T03:24:36.526Z,91.13
2018-03-14T03:25:42.687Z,91.35
2018-03-14T03:26:48.551Z,92.03
2018-03-14T03:27:54.694Z,91.80
2018-03-14T03:29:00.878Z,91.77
2018-03-14T03:30:07.066Z,91.81
2018-03-14T03:31:13.209Z,91.99
2018-03-14T03:32:19.376Z,92.07
2018-03-14T03:33:25.567Z,92.35
2018-03-14T03:34:31.766Z,92.98
2018-03-14T03:35:37.921Z,92.75
2018-03-14T03:36:44.079Z,92.55
2018-03-14T03:37:49.980Z,92.70
2018-03-14T03:38:56.145Z,92.69
2018-03-14T03:40:02.346Z,92.28
2018-03-14T03:41:08.506Z,92.70
2018-03-14T03:42:14.314Z,92.70
2018-03-14T03:43:20.498Z,92.55
2018-03-14T03:44:27.388Z,92.74
2018-03-14T03:45:33.595Z,92.54
2018-03-14T03:46:39.741Z,92.49
2018-03-14T03:47:45.919Z,92.65
2018-03-14T03:48:52.108Z,92.75
2018-03-14T03:49:58.240Z,92.54
2018-03-14T03:51:14.885Z,92.79
2018-03-14T03:52:21.033Z,92.86
2018-03-14T03:53:27.159Z,93.13
2018-03-14T03:54:33.328Z,92.93
2018-03-14T03:55:41.297Z,92.67
2018-03-14T03:56:47.474Z,92.41
2018-03-14T03:57:53.672Z,92.16
2018-03-14T03:58:59.817Z,92.53
2018-03-14T04:00:05.254Z,92.89
2018-03-14T04:01:11.409Z,93.53
2018-03-14T04:02:17.588Z,93.56
2018-03-14T04:03:23.855Z,93.50
2018-03-14T04:04:30.020Z,93.12
2018-03-14T04:05:36.142Z,92.70
2018-03-14T04:06:42.386Z,92.78
2018-03-14T04:07:48.651Z,92.89
2018-03-14T04:08:54.775Z,93.03
2018-03-14T04:10:00.882Z,92.80
2018-03-14T04:11:10.028Z,92.70
2018-03-14T04:12:16.190Z,92.93
2018-03-14T04:13:22.077Z,93.40
2018-03-14T04:14:28.316Z,93.40
2018-03-14T04:15:34.524Z,93.34
2018-03-14T04:16:40.740Z,93.37
2018-03-14T04:17:46.957Z,94.03
2018-03-14T04:18:53.159Z,94.94
2018-03-14T04:19:59.335Z,95.47
2018-03-14T04:21:05.515Z,94.99
2018-03-14T04:22:11.747Z,94.50
2018-03-14T04:23:17.936Z,94.38
2018-03-14T04:24:24.144Z,93.67
2018-03-14T04:25:30.260Z,92.43
2018-03-14T04:26:36.475Z,92.43
2018-03-14T04:27:42.608Z,92.40
2018-03-14T04:28:48.699Z,92.27
2018-03-14T04:29:54.889Z,92.15
2018-03-14T04:31:01.090Z,91.24
2018-03-14T04:32:12.314Z,91.63
2018-03-14T04:33:18.510Z,92.11
2018-03-14T04:34:24.748Z,91.94
2018-03-14T04:35:30.910Z,92.13
2018-03-14T04:36:37.031Z,92.67
2018-03-14T04:37:43.198Z,92.65
2018-03-14T04:38:49.344Z,91.85
2018-03-14T04:39:55.512Z,92.17
2018-03-14T04:41:01.644Z,92.34
2018-03-14T04:42:07.803Z,92.49
2018-03-14T04:43:13.903Z,92.66
2018-03-14T04:44:20.047Z,92.17
2018-03-14T04:45:26.222Z,92.47
2018-03-14T04:46:32.457Z,92.92
2018-03-14T04:47:38.618Z,92.53
2018-03-14T04:48:44.791Z,93.12
2018-03-14T04:49:51.008Z,93.00
2018-03-14T04:50:57.555Z,93.17
2018-03-14T04:52:03.766Z,93.30
2018-03-14T04:53:09.940Z,93.25
2018-03-14T04:54:16.147Z,93.66
2018-03-14T04:55:22.313Z,93.44
2018-03-14T04:56:28.474Z,93.10
2018-03-14T04:57:34.581Z,93.00
2018-03-14T04:58:40.681Z,92.58
2018-03-14T04:59:46.903Z,92.67
2018-03-14T05:00:53.032Z,92.55
2018-03-14T05:01:59.127Z,92.66
2018-03-14T05:03:05.243Z,92.63
2018-03-14T05:04:11.374Z,92.98
2018-03-14T05:05:17.693Z,92.77
2018-03-14T05:06:23.832Z,92.85
2018-03-14T05:07:30.017Z,92.63
2018-03-14T05:08:36.392Z,92.39
2018-03-14T05:09:42.509Z,92.45
2018-03-14T05:10:48.666Z,91.36
2018-03-14T05:11:54.759Z,91.51
2018-03-14T05:13:00.904Z,90.95
2018-03-14T05:14:07.043Z,90.52
2018-03-14T05:15:12.936Z,90.21
2018-03-14T05:16:19.109Z,90.93
2018-03-14T05:17:25.281Z,91.29
2018-03-14T05:18:31.447Z,91.81
2018-03-14T05:19:37.547Z,92.49
2018-03-14T05:20:43.684Z,91.26
2018-03-14T05:21:49.856Z,91.18
2018-03-14T05:23:01.213Z,91.75
2018-03-14T05:24:07.931Z,92.62
2018-03-14T05:25:14.138Z,93.47
2018-03-14T05:26:20.412Z,93.67
2018-03-14T05:27:26.596Z,93.70
2018-03-14T05:28:32.740Z,93.60
2018-03-14T05:29:38.888Z,93.27
2018-03-14T05:30:45.011Z,93.04
2018-03-14T05:31:51.203Z,93.08
2018-03-14T05:32:57.350Z,93.40
2018-03-14T05:34:03.501Z,93.69
2018-03-14T05:35:12.672Z,93.86
2018-03-14T05:36:18.909Z,93.95
2018-03-14T05:37:25.060Z,93.73
2018-03-14T05:38:31.204Z,93.39
2018-03-14T05:39:37.340Z,93.74
2018-03-14T05:40:43.515Z,94.05
2018-03-14T05:41:49.683Z,93.84
2018-03-14T05:42:55.819Z,93.41
2018-03-14T05:44:01.949Z,93.51
2018-03-14T05:45:08.068Z,93.53
2018-03-14T05:46:14.269Z,93.97
2018-03-14T05:47:20.515Z,93.67
2018-03-14T05:48:26.691Z,93.79
2018-03-14T05:49:32.861Z,94.10
2018-03-14T05:50:39.072Z,94.18
2018-03-14T05:51:45.247Z,94.25
2018-03-14T05:52:51.367Z,93.99
2018-03-14T05:53:57.495Z,93.51
2018-03-14T05:55:03.652Z,93.64
2018-03-14T05:56:09.832Z,94.04
2018-03-14T05:57:16.027Z,93.99
2018-03-14T05:58:22.231Z,93.85
2018-03-14T05:59:28.513Z,93.37
2018-03-14T06:00:35.182Z,93.96
2018-03-14T06:01:41.786Z,94.38
2018-03-14T06:02:49.517Z,94.49
2018-03-14T06:03:55.828Z,94.80
2018-03-14T06:05:02.160Z,94.67
2018-03-14T06:06:08.772Z,94.62
2018-03-14T06:07:15.263Z,94.60
2018-03-14T06:08:21.612Z,94.74
2018-03-14T06:09:27.836Z,95.59
2018-03-14T06:10:33.970Z,95.28
2018-03-14T06:11:40.337Z,94.96
2018-03-14T06:12:46.491Z,95.39
2018-03-14T06:13:52.650Z,95.31
2018-03-14T06:14:58.883Z,95.41
2018-03-14T06:16:04.923Z,94.51
2018-03-14T06:17:10.817Z,94.24
2018-03-14T06:18:16.943Z,93.97
2018-03-14T06:19:23.096Z,93.82
2018-03-14T06:20:29.239Z,92.85
2018-03-14T06:21:35.832Z,92.24
2018-03-14T06:22:42.013Z,91.92
2018-03-14T06:23:48.128Z,91.99
2018-03-14T06:24:54.053Z,92.18
2018-03-14T06:26:00.202Z,91.98
2018-03-14T06:27:06.422Z,92.22
2018-03-14T06:28:12.577Z,92.54
2018-03-14T06:29:18.750Z,92.68
2018-03-14T06:30:24.980Z,93.07
2018-03-14T06:31:31.179Z,92.56
2018-03-14T06:32:37.416Z,92.57
2018-03-14T06:33:44.033Z,92.63
2018-03-14T06:34:50.134Z,92.12
2018-03-14T06:35:56.298Z,91.85
2018-03-14T06:37:02.499Z,91.84
2018-03-14T06:38:08.646Z,92.22
2018-03-14T06:39:14.530Z,92.29
2018-03-14T06:40:20.718Z,93.04
2018-03-14T06:41:26.908Z,92.59
2018-03-14T06:42:33.065Z,92.35
2018-03-14T06:43:39.248Z,92.23
2018-03-14T06:44:45.429Z,92.19
2018-03-14T06:45:51.632Z,92.36
2018-03-14T06:46:57.796Z,92.18
2018-03-14T06:48:06.189Z,91.93
2018-03-14T06:49:13.206Z,91.80
2018-03-14T06:50:19.181Z,91.55
2018-03-14T06:51:25.354Z,91.39
2018-03-14T06:52:31.776Z,91.06
2018-03-14T06:53:37.910Z,91.02
2018-03-14T06:54:44.184Z,91.58
2018-03-14T06:55:51.348Z,91.52
2018-03-14T06:56:57.920Z,91.29
2018-03-14T06:58:04.096Z,91.82
2018-03-14T06:59:21.171Z,92.19
2018-03-14T07:00:38.259Z,92.18
2018-03-14T07:01:55.346Z,91.88
2018-03-14T07:04:44.582Z,91.17
2018-03-14T07:06:01.396Z,90.63
2018-03-14T07:07:07.304Z,90.94
2018-03-14T07:08:13.485Z,90.64
2018-03-14T07:09:19.605Z,90.80
2018-03-14T07:10:25.704Z,90.34
2018-03-14T07:11:31.895Z,90.50
2018-03-14T07:12:38.489Z,90.44
2018-03-14T07:13:44.595Z,90.37
2018-03-14T07:14:51.028Z,90.36
2018-03-14T07:15:57.180Z,90.24
2018-03-14T07:17:03.357Z,90.23
2018-03-14T07:18:09.593Z,90.64
2018-03-14T07:19:20.620Z,90.77
2018-03-14T07:20:26.721Z,90.67
2018-03-14T07:21:31.699Z,90.71
2018-03-14T07:22:37.817Z,90.45
2018-03-14T07:23:44.050Z,90.25
2018-03-14T07:24:50.184Z,90.04
2018-03-14T07:25:56.332Z,90.24
2018-03-14T07:27:04.468Z,90.07
2018-03-14T07:28:10.672Z,90.26
2018-03-14T07:29:16.618Z,90.60
2018-03-14T07:30:22.764Z,90.87
2018-03-14T07:31:28.905Z,91.10
2018-03-14T07:32:35.044Z,91.04
2018-03-14T07:33:41.213Z,90.89
2018-03-14T07:34:47.388Z,90.64
2018-03-14T07:35:53.486Z,90.72
2018-03-14T07:36:59.795Z,90.87
2018-03-14T07:38:05.940Z,91.06
2018-03-14T07:39:12.236Z,91.18
2018-03-14T07:40:18.427Z,91.13
2018-03-14T07:41:24.635Z,91.62
2018-03-14T07:42:30.771Z,91.55
2018-03-14T07:43:36.921Z,91.47
2018-03-14T07:44:43.131Z,90.95
2018-03-14T07:45:49.441Z,91.23
2018-03-14T07:46:55.625Z,91.53
2018-03-14T07:48:01.836Z,91.52
2018-03-14T07:49:08.025Z,91.35
2018-03-14T07:50:14.148Z,91.25
2018-03-14T07:51:20.284Z,91.96
2018-03-14T07:52:26.404Z,92.24
2018-03-14T07:53:32.575Z,92.51
2018-03-14T07:54:38.726Z,92.50
2018-03-14T07:55:44.896Z,91.99
2018-03-14T07:56:51.031Z,92.69
2018-03-14T07:57:57.184Z,92.02
2018-03-14T07:59:03.371Z,92.00
2018-03-14T08:00:09.509Z,92.06
2018-03-14T08:01:15.473Z,91.46
2018-03-14T08:02:21.712Z,91.00
2018-03-14T08:03:27.932Z,90.09
2018-03-14T08:04:34.116Z,89.61
2018-03-14T08:05:40.296Z,89.58
2018-03-14T08:06:46.478Z,89.06
2018-03-14T08:07:52.663Z,88.51
2018-03-14T08:08:58.833Z,88.78
2018-03-14T08:10:04.662Z,89.53
2018-03-14T08:11:10.890Z,89.55
2018-03-14T08:12:17.076Z,89.26
2018-03-14T08:13:23.247Z,88.91
2018-03-14T08:14:29.612Z,88.56
2018-03-14T08:15:35.894Z,87.85
2018-03-14T08:16:42.060Z,88.52
2018-03-14T08:17:48.181Z,89.05
2018-03-14T08:18:54.370Z,87.85
2018-03-14T08:20:00.504Z,87.13
2018-03-14T08:21:06.754Z,87.39
2018-03-14T08:22:13.027Z,87.62
2018-03-14T08:23:19.160Z,87.37
2018-03-14T08:24:25.300Z,87.02
2018-03-14T08:25:31.677Z,87.40
2018-03-14T08:26:37.635Z,87.07
2018-03-14T08:27:43.782Z,87.31
2018-03-14T08:28:49.933Z,87.25
2018-03-14T08:29:56.417Z,86.65
2018-03-14T08:31:02.566Z,86.97
2018-03-14T08:32:08.736Z,87.89
2018-03-14T08:33:14.906Z,88.17
2018-03-14T08:34:21.069Z,88.32
2018-03-14T08:35:27.250Z,87.98
2018-03-14T08:36:33.377Z,86.90
2018-03-14T08:37:39.566Z,86.18
2018-03-14T08:38:45.725Z,85.66
2018-03-14T08:39:51.933Z,85.90
2018-03-14T08:40:58.087Z,85.59
2018-03-14T08:42:04.219Z,85.38
2018-03-14T08:43:10.417Z,85.32
2018-03-14T08:44:16.624Z,85.60
2018-03-14T08:45:22.764Z,85.90
2018-03-14T08:46:28.953Z,85.83
2018-03-14T08:47:35.135Z,84.95
2018-03-14T08:48:41.335Z,84.79
2018-03-14T08:49:47.480Z,84.55
2018-03-14T08:50:53.657Z,84.47
2018-03-14T08:51:59.802Z,83.61
2018-03-14T08:53:06.210Z,82.47
2018-03-14T08:54:12.382Z,82.19
2018-03-14T08:55:18.559Z,82.10
2018-03-14T08:56:24.699Z,82.69
2018-03-14T08:57:30.926Z,82.10
2018-03-14T08:58:37.068Z,82.63
2018-03-14T08:59:43.275Z,82.98
2018-03-14T09:00:49.409Z,83.35
2018-03-14T09:01:55.668Z,84.15
2018-03-14T09:03:01.871Z,84.67
2018-03-14T09:04:08.132Z,84.55
2018-03-14T09:05:14.315Z,84.59
2018-03-14T09:06:21.084Z,84.02
2018-03-14T09:07:27.260Z,84.26
2018-03-14T09:08:33.638Z,84.40
2018-03-14T09:09:39.795Z,84.96
2018-03-14T09:10:45.895Z,84.86
2018-03-14T09:11:52.011Z,83.14
2018-03-14T09:12:58.115Z,81.57
2018-03-14T09:14:04.020Z,82.18
2018-03-14T09:15:10.216Z,82.76
2018-03-14T09:16:16.392Z,81.12
2018-03-14T09:17:22.573Z,81.40
2018-03-14T09:18:28.756Z,81.82
2018-03-14T09:19:34.938Z,81.69
2018-03-14T09:20:41.055Z,81.71
2018-03-14T09:21:47.158Z,82.34
2018-03-14T09:22:53.384Z,82.10
2018-03-14T09:23:59.538Z,82.30
2018-03-14T09:25:05.450Z,81.92
2018-03-14T09:26:11.616Z,81.48
2018-03-14T09:27:17.804Z,81.26
2018-03-14T09:28:23.955Z,81.62
2018-03-14T09:29:30.118Z,81.52
2018-03-14T09:30:35.924Z,81.17
2018-03-14T09:31:42.185Z,81.03
2018-03-14T09:32:48.552Z,80.97
2018-03-14T09:33:54.799Z,81.19
2018-03-14T09:35:00.976Z,80.74
2018-03-14T09:36:07.104Z,80.86
2018-03-14T09:37:13.231Z,80.69
2018-03-14T09:38:19.350Z,80.17
2018-03-14T09:39:25.207Z,80.41
2018-03-14T09:40:31.379Z,79.90
2018-03-14T09:41:37.546Z,78.68
2018-03-14T09:42:43.690Z,78.13
2018-03-14T09:43:49.837Z,78.04
2018-03-14T09:44:55.963Z,77.77
2018-03-14T09:46:02.130Z,77.14
2018-03-14T09:47:11.535Z,77.52
2018-03-14T09:48:17.856Z,77.51
2018-03-14T09:49:24.042Z,77.88
2018-03-14T09:50:30.170Z,77.89
2018-03-14T09:51:36.312Z,77.96
2018-03-14T09:52:42.448Z,77.37
2018-03-14T09:53:49.504Z,77.19
2018-03-14T09:54:55.632Z,77.56
2018-03-14T09:56:01.841Z,77.50
2018-03-14T09:57:08.464Z,78.06
2018-03-14T09:58:14.715Z,78.40
2018-03-14T09:59:20.839Z,78.57
2018-03-14T10:00:26.936Z,78.55
2018-03-14T10:01:33.092Z,78.15
2018-03-14T10:02:39.204Z,77.61
2018-03-14T10:03:45.371Z,77.87
2018-03-14T10:04:51.532Z,77.98
2018-03-14T10:05:57.683Z,77.07
2018-03-14T10:07:03.808Z,75.78
2018-03-14T10:08:09.969Z,74.83
2018-03-14T10:09:16.380Z,74.71
2018-03-14T10:10:22.669Z,74.66
2018-03-14T10:11:28.854Z,74.20
2018-03-14T10:12:35.004Z,74.43
2018-03-14T10:13:41.145Z,75.37
2018-03-14T10:14:47.292Z,74.66
2018-03-14T10:15:53.472Z,74.31
2018-03-14T10:16:59.656Z,73.86
2018-03-14T10:18:05.874Z,73.00
2018-03-14T10:19:12.006Z,73.44
2018-03-14T10:20:18.219Z,73.89
2018-03-14T10:21:24.507Z,74.11
2018-03-14T10:22:33.550Z,73.75
2018-03-14T10:23:39.666Z,73.64
2018-03-14T10:24:45.884Z,74.07
2018-03-14T10:25:52.098Z,74.06
2018-03-14T10:26:58.452Z,74.36
2018-03-14T10:28:03.885Z,74.04
2018-03-14T10:29:10.045Z,74.22
2018-03-14T10:30:16.237Z,74.25
2018-03-14T10:31:23.143Z,74.01
2018-03-14T10:32:29.383Z,74.32
2018-03-14T10:33:35.573Z,74.36
2018-03-14T10:34:41.788Z,74.44
2018-03-14T10:35:47.945Z,74.77
2018-03-14T10:36:54.140Z,74.40
2018-03-14T10:38:00.279Z,74.04
2018-03-14T10:39:05.259Z,73.26
2018-03-14T10:40:11.421Z,73.71
2018-03-14T10:41:17.626Z,74.89
2018-03-14T10:42:28.939Z,74.26
2018-03-14T10:43:36.348Z,74.80
2018-03-14T10:44:42.541Z,75.04
2018-03-14T10:45:48.655Z,74.90
2018-03-14T10:46:54.484Z,74.67
2018-03-14T10:48:00.727Z,72.91
2018-03-14T10:49:06.600Z,72.21
2018-03-14T10:50:12.794Z,72.28
2018-03-14T10:51:19.001Z,71.80
2018-03-14T10:52:25.301Z,72.31
2018-03-14T10:53:31.460Z,72.54
2018-03-14T10:54:37.602Z,72.84
2018-03-14T10:55:43.823Z,71.20
2018-03-14T10:56:49.931Z,69.42
2018-03-14T10:57:56.114Z,68.17
2018-03-14T10:59:02.261Z,67.87
2018-03-14T11:00:07.592Z,67.70
2018-03-14T11:01:13.551Z,68.38
2018-03-14T11:02:22.425Z,68.54
2018-03-14T11:03:34.140Z,68.25
2018-03-14T11:04:40.281Z,68.65
2018-03-14T11:05:46.478Z,68.94
2018-03-14T11:06:52.655Z,68.92
2018-03-14T11:07:58.882Z,67.40
2018-03-14T11:09:04.384Z,65.82
2018-03-14T11:10:10.492Z,65.04
2018-03-14T11:11:17.266Z,65.70
2018-03-14T11:12:23.410Z,65.56
2018-03-14T11:13:29.607Z,65.12
2018-03-14T11:14:36.020Z,65.74
2018-03-14T11:15:42.192Z,66.09
2018-03-14T11:16:48.392Z,65.52
2018-03-14T11:17:54.619Z,66.20
2018-03-14T11:19:00.795Z,66.74
2018-03-14T11:20:06.984Z,65.58
2018-03-14T11:21:13.370Z,65.38
2018-03-14T11:22:19.540Z,65.73
2018-03-14T11:23:25.716Z,66.68
2018-03-14T11:24:31.889Z,65.76
2018-03-14T11:25:38.149Z,65.87
2018-03-14T11:26:44.560Z,65.61
2018-03-14T11:27:50.778Z,65.54
2018-03-14T11:28:56.988Z,65.55
2018-03-14T11:30:03.171Z,66.07
2018-03-14T11:31:08.985Z,66.30
2018-03-14T11:32:15.161Z,66.07
2018-03-14T11:33:21.349Z,66.17
2018-03-14T11:34:27.496Z,66.18
2018-03-14T11:35:33.705Z,65.81
2018-03-14T11:36:39.895Z,65.63
2018-03-14T11:37:46.107Z,65.47
2018-03-14T11:38:52.333Z,65.47
2018-03-14T11:39:58.501Z,66.10
2018-03-14T11:41:04.733Z,66.50
2018-03-14T11:42:10.897Z,65.67
2018-03-14T11:43:16.813Z,64.69
2018-03-14T11:44:23.021Z,65.11
2018-03-14T11:45:29.248Z,65.29
2018-03-14T11:46:35.400Z,66.19
2018-03-14T11:47:41.362Z,65.95
2018-03-14T11:48:47.495Z,65.51
2018-03-14T11:49:53.687Z,65.32
2018-03-14T11:50:59.888Z,65.94
2018-03-14T11:52:05.771Z,66.31
2018-03-14T11:53:11.955Z,65.46
2018-03-14T11:54:18.218Z,65.32
2018-03-14T11:55:24.428Z,64.91
2018-03-14T11:56:30.635Z,65.08
2018-03-14T11:57:36.816Z,63.84
2018-03-14T11:58:43.306Z,63.87
2018-03-14T11:59:49.771Z,64.20
2018-03-14T12:00:56.170Z,64.46
2018-03-14T12:02:02.336Z,64.58
2018-03-14T12:03:08.539Z,64.15
2018-03-14T12:04:14.748Z,64.91
2018-03-14T12:05:21.172Z,65.24
2018-03-14T12:06:27.319Z,65.12
2018-03-14T12:07:33.495Z,64.69
2018-03-14T12:08:39.644Z,65.31
2018-03-14T12:09:45.881Z,65.65
2018-03-14T12:10:52.079Z,64.73
2018-03-14T12:11:58.276Z,64.01
2018-03-14T12:13:04.134Z,64.19
2018-03-14T12:14:10.375Z,63.91
2018-03-14T12:15:16.873Z,64.09
2018-03-14T12:16:23.084Z,64.48
2018-03-14T12:17:29.259Z,64.35
2018-03-14T12:18:35.490Z,63.74
2018-03-14T12:19:41.884Z,64.75
2018-03-14T12:20:48.092Z,64.06
2018-03-14T12:21:54.693Z,63.82
2018-03-14T12:23:00.864Z,63.55
2018-03-14T12:24:07.043Z,63.43
2018-03-14T12:25:13.283Z,63.49
2018-03-14T12:26:19.543Z,62.83
2018-03-14T12:27:25.950Z,63.55
2018-03-14T12:28:32.207Z,63.28
2018-03-14T12:29:38.347Z,63.54
2018-03-14T12:30:44.569Z,63.35
2018-03-14T12:31:50.761Z,63.17
2018-03-14T12:32:56.980Z,62.24
2018-03-14T12:34:16.189Z,62.78
2018-03-14T12:35:22.497Z,62.80
2018-03-14T12:36:28.715Z,62.55
2018-03-14T12:37:35.879Z,62.82
2018-03-14T12:38:42.076Z,63.45
2018-03-14T12:39:48.294Z,63.78
2018-03-14T12:40:54.531Z,63.28
2018-03-14T12:42:00.761Z,63.20
2018-03-14T12:43:06.967Z,63.20
2018-03-14T12:44:13.206Z,62.31
2018-03-14T12:45:19.409Z,62.10
2018-03-14T12:46:25.702Z,61.91
2018-03-14T12:47:31.896Z,62.38
2018-03-14T12:48:38.144Z,62.98
2018-03-14T12:49:44.321Z,63.04
2018-03-14T12:50:50.555Z,62.66
2018-03-14T12:51:56.528Z,63.32
2018-03-14T12:53:02.769Z,62.80
2018-03-14T12:54:08.759Z,61.88
2018-03-14T12:55:15.592Z,61.35
2018-03-14T12:56:21.817Z,61.09
2018-03-14T12:57:27.991Z,61.41
2018-03-14T12:58:34.225Z,62.20
2018-03-14T12:59:41.265Z,61.39
2018-03-14T13:00:47.467Z,61.28
2018-03-14T13:01:53.770Z,60.98
2018-03-14T13:03:00.590Z,60.39
2018-03-14T13:04:06.885Z,59.81
2018-03-14T13:05:13.163Z,58.96
2018-03-14T13:06:19.374Z,59.40
2018-03-14T13:07:25.581Z,59.59
2018-03-14T13:08:36.975Z,58.89
2018-03-14T13:09:43.200Z,59.78
2018-03-14T13:10:49.433Z,59.23
2018-03-14T13:11:55.646Z,58.81
2018-03-14T13:13:01.868Z,59.38
2018-03-14T13:14:08.117Z,59.95
2018-03-14T13:15:14.290Z,60.30
2018-03-14T13:16:21.462Z,60.89
2018-03-14T13:17:27.650Z,60.86
2018-03-14T13:18:33.972Z,60.88
2018-03-14T13:19:40.917Z,61.27
2018-03-14T13:20:47.217Z,60.52
2018-03-14T13:21:53.687Z,60.65
2018-03-14T13:22:59.910Z,60.46
2018-03-14T13:24:06.176Z,59.89
2018-03-14T13:25:12.369Z,60.48
2018-03-14T13:26:18.639Z,59.88
2018-03-14T13:27:26.006Z,59.63
2018-03-14T13:28:32.824Z,59.87
2018-03-14T13:29:39.089Z,60.26
2018-03-14T13:30:45.518Z,59.92
2018-03-14T13:31:51.746Z,59.67
2018-03-14T13:32:58.027Z,59.73
2018-03-14T13:34:04.286Z,59.43
2018-03-14T13:35:10.705Z,59.58
2018-03-14T13:36:17.894Z,59.74
2018-03-14T13:37:24.138Z,59.73
2018-03-14T13:38:30.363Z,60.08
2018-03-14T13:39:41.460Z,60.00
2018-03-14T13:40:47.675Z,59.33
2018-03-14T13:41:53.919Z,59.66
2018-03-14T13:43:00.363Z,59.85
2018-03-14T13:44:07.376Z,60.38
2018-03-14T13:45:13.584Z,60.46
2018-03-14T13:46:19.814Z,59.59
2018-03-14T13:47:26.193Z,60.23
2018-03-14T13:48:32.508Z,60.78
2018-03-14T13:49:38.822Z,60.88
2018-03-14T13:50:45.159Z,60.94
2018-03-14T13:51:51.441Z,60.82
2018-03-14T13:52:57.853Z,60.90
2018-03-14T13:54:03.810Z,61.02
2018-03-14T13:55:09.950Z,61.10
2018-03-14T13:56:17.139Z,60.98
2018-03-14T13:57:23.484Z,61.30
2018-03-14T13:58:29.744Z,61.15
2018-03-14T13:59:36.029Z,60.78
2018-03-14T14:00:42.288Z,61.16
2018-03-14T14:01:48.564Z,60.75
2018-03-14T14:02:54.963Z,60.15
2018-03-14T14:04:01.555Z,60.08
2018-03-14T14:05:07.793Z,60.41
2018-03-14T14:06:14.106Z,60.59
2018-03-14T14:07:20.356Z,60.87
2018-03-14T14:08:26.621Z,60.91
2018-03-14T14:09:32.856Z,60.19
2018-03-14T14:10:39.089Z,60.34
2018-03-14T14:11:45.392Z,59.86
2018-03-14T14:12:51.614Z,59.96
2018-03-14T14:13:57.822Z,59.76
2018-03-14T14:15:04.047Z,60.04
2018-03-14T14:16:10.327Z,60.30
2018-03-14T14:17:16.560Z,60.55
2018-03-14T14:18:22.810Z,60.19